Portada
METAR-TAF:

METAR-TAF

Aeroports :

Niigata, Japó

latitud: 37-57N, longitud: 139-07E, altitud: 1 m

Observació

L'informe es va fer fa 1 hora i 11 minuts, a les 08:00 UTC
Vent 6 kt del Nord-Oest
Temperatura 3°C
Humitat 48%
Pressió 1033 hPa
Visibilitat 10 km o més
Escasses núvols a una alçada de 3000 ft

METAR: RJSN 270800Z 32006KT 9999 FEW030 03/M07 Q1033

Hora: 18:11 (09:11 UTC)

Pronòstic

L'informe es va fer fa 4 hores i 6 minuts, a les 05:05 UTC
Pronòstic vàlid del 27 a les 06 UTC al 28 a les 12 UTC
Vent 10 kt del Nord
Visibilitat 10 km o més
Escasses núvols a una alçada de 2000 ft
Núvols disperses a una alçada de 4000 ft
Evolucionant progressivament
l' 27 a les 10 UTC al 27 a les 12 UTC
Vent 5 kt del Sud/Sud-Est

TAF: RJSN 270505Z 2706/2812 36010KT 9999 FEW020 SCT040 BECMG 2710/2712 16005KT

Observacions i pronòstics meteorològics de més de 4000 aeroports (METAR i TAF).

Les estacions disponibles són els punts grocs i vermells al mapa.

Posi el ratolí al punt desitjat per veure el nom de l'estació.

Feu clic per veure les observacions i els pronòstics meteorològics.

Per canviar el mapa: feu clic els botons verds amb una creu de color negre per apropar; al botó verd amb un guió per allunyar la imatge; o en les fletxes verdes per a mapes adjacents.


METAR-TAF: